sensor_id;sensor_type;location;lat;lon;timestamp;P1;durP1;ratioP1;P2;durP2;ratioP2
20022;SDS011;10172;42.054;24.546;2022-07-06T00:01:32;5.10;;;3.63;;
20022;SDS011;10172;42.054;24.546;2022-07-06T00:03:58;6.18;;;3.40;;
20022;SDS011;10172;42.054;24.546;2022-07-06T00:06:24;7.80;;;3.65;;
20022;SDS011;10172;42.054;24.546;2022-07-06T00:08:50;9.88;;;3.90;;
20022;SDS011;10172;42.054;24.546;2022-07-06T00:11:16;7.65;;;3.55;;
20022;SDS011;10172;42.054;24.546;2022-07-06T00:13:41;7.55;;;3.58;;
20022;SDS011;10172;42.054;24.546;2022-07-06T00:16:07;7.95;;;3.40;;
20022;SDS011;10172;42.054;24.546;2022-07-06T00:18:33;7.22;;;3.50;;
20022;SDS011;10172;42.054;24.546;2022-07-06T00:20:58;4.45;;;3.33;;
20022;SDS011;10172;42.054;24.546;2022-07-06T00:23:24;7.50;;;3.30;;
20022;SDS011;10172;42.054;24.546;2022-07-06T00:25:49;6.35;;;3.28;;
20022;SDS011;10172;42.054;24.546;2022-07-06T00:28:15;4.72;;;3.08;;
20022;SDS011;10172;42.054;24.546;2022-07-06T00:30:41;5.25;;;3.22;;
20022;SDS011;10172;42.054;24.546;2022-07-06T00:33:06;10.82;;;3.55;;
20022;SDS011;10172;42.054;24.546;2022-07-06T00:35:32;7.38;;;3.33;;
20022;SDS011;10172;42.054;24.546;2022-07-06T00:37:59;5.30;;;2.90;;
20022;SDS011;10172;42.054;24.546;2022-07-06T00:40:24;6.28;;;2.97;;
20022;SDS011;10172;42.054;24.546;2022-07-06T00:42:50;6.60;;;3.13;;
20022;SDS011;10172;42.054;24.546;2022-07-06T00:45:16;13.35;;;3.17;;
20022;SDS011;10172;42.054;24.546;2022-07-06T00:47:43;5.43;;;3.55;;
20022;SDS011;10172;42.054;24.546;2022-07-06T00:50:10;8.00;;;2.78;;
20022;SDS011;10172;42.054;24.546;2022-07-06T00:52:40;6.63;;;3.15;;
20022;SDS011;10172;42.054;24.546;2022-07-06T00:55:07;5.68;;;3.00;;
20022;SDS011;10172;42.054;24.546;2022-07-06T00:57:38;6.65;;;3.08;;
20022;SDS011;10172;42.054;24.546;2022-07-06T01:00:05;4.68;;;3.10;;
20022;SDS011;10172;42.054;24.546;2022-07-06T01:02:36;6.88;;;2.90;;
20022;SDS011;10172;42.054;24.546;2022-07-06T01:05:03;5.47;;;2.88;;
20022;SDS011;10172;42.054;24.546;2022-07-06T01:07:30;6.60;;;3.25;;
20022;SDS011;10172;42.054;24.546;2022-07-06T01:09:56;6.63;;;3.53;;
20022;SDS011;10172;42.054;24.546;2022-07-06T01:12:22;3.67;;;2.80;;
20022;SDS011;10172;42.054;24.546;2022-07-06T01:14:48;5.78;;;3.25;;
20022;SDS011;10172;42.054;24.546;2022-07-06T01:17:15;5.57;;;3.05;;
20022;SDS011;10172;42.054;24.546;2022-07-06T01:19:41;5.35;;;3.45;;
20022;SDS011;10172;42.054;24.546;2022-07-06T01:22:06;5.45;;;2.95;;
20022;SDS011;10172;42.054;24.546;2022-07-06T01:24:34;5.13;;;2.90;;
20022;SDS011;10172;42.054;24.546;2022-07-06T01:27:00;6.90;;;3.17;;
20022;SDS011;10172;42.054;24.546;2022-07-06T01:29:26;6.13;;;3.38;;
20022;SDS011;10172;42.054;24.546;2022-07-06T01:31:51;4.85;;;3.25;;
20022;SDS011;10172;42.054;24.546;2022-07-06T01:34:17;6.78;;;3.13;;
20022;SDS011;10172;42.054;24.546;2022-07-06T01:36:43;5.45;;;2.97;;
20022;SDS011;10172;42.054;24.546;2022-07-06T01:39:09;4.78;;;3.10;;
20022;SDS011;10172;42.054;24.546;2022-07-06T01:41:35;4.65;;;2.63;;
20022;SDS011;10172;42.054;24.546;2022-07-06T01:44:01;5.00;;;2.95;;
20022;SDS011;10172;42.054;24.546;2022-07-06T01:46:27;4.90;;;2.88;;
20022;SDS011;10172;42.054;24.546;2022-07-06T01:48:53;7.78;;;3.20;;
20022;SDS011;10172;42.054;24.546;2022-07-06T01:51:18;5.65;;;3.42;;
20022;SDS011;10172;42.054;24.546;2022-07-06T01:53:44;5.57;;;3.35;;
20022;SDS011;10172;42.054;24.546;2022-07-06T01:56:10;6.32;;;3.15;;
20022;SDS011;10172;42.054;24.546;2022-07-06T01:58:36;6.88;;;3.22;;
20022;SDS011;10172;42.054;24.546;2022-07-06T02:01:06;5.47;;;3.33;;
20022;SDS011;10172;42.054;24.546;2022-07-06T02:03:35;5.07;;;3.25;;
20022;SDS011;10172;42.054;24.546;2022-07-06T02:06:01;6.28;;;3.10;;
20022;SDS011;10172;42.054;24.546;2022-07-06T02:08:27;5.00;;;3.15;;
20022;SDS011;10172;42.054;24.546;2022-07-06T02:10:52;4.75;;;3.25;;
20022;SDS011;10172;42.054;24.546;2022-07-06T02:13:17;6.25;;;3.40;;
20022;SDS011;10172;42.054;24.546;2022-07-06T02:15:43;6.07;;;3.38;;
20022;SDS011;10172;42.054;24.546;2022-07-06T02:18:08;5.13;;;3.25;;
20022;SDS011;10172;42.054;24.546;2022-07-06T02:20:34;7.97;;;3.13;;
20022;SDS011;10172;42.054;24.546;2022-07-06T02:22:59;5.10;;;3.28;;
20022;SDS011;10172;42.054;24.546;2022-07-06T02:25:25;8.77;;;3.63;;
20022;SDS011;10172;42.054;24.546;2022-07-06T02:27:50;5.47;;;3.20;;
20022;SDS011;10172;42.054;24.546;2022-07-06T02:30:16;7.85;;;3.50;;
20022;SDS011;10172;42.054;24.546;2022-07-06T02:32:42;6.72;;;3.47;;
20022;SDS011;10172;42.054;24.546;2022-07-06T02:35:07;6.43;;;3.10;;
20022;SDS011;10172;42.054;24.546;2022-07-06T02:37:33;7.22;;;3.40;;
20022;SDS011;10172;42.054;24.546;2022-07-06T02:39:58;8.32;;;3.70;;
20022;SDS011;10172;42.054;24.546;2022-07-06T02:42:24;6.75;;;3.97;;
20022;SDS011;10172;42.054;24.546;2022-07-06T02:44:49;9.23;;;3.47;;
20022;SDS011;10172;42.054;24.546;2022-07-06T02:47:14;5.35;;;3.60;;
20022;SDS011;10172;42.054;24.546;2022-07-06T02:49:40;10.25;;;4.38;;
20022;SDS011;10172;42.054;24.546;2022-07-06T02:52:05;5.07;;;3.40;;
20022;SDS011;10172;42.054;24.546;2022-07-06T02:54:31;6.65;;;3.50;;
20022;SDS011;10172;42.054;24.546;2022-07-06T02:56:56;4.30;;;3.60;;
20022;SDS011;10172;42.054;24.546;2022-07-06T02:59:22;6.82;;;3.40;;
20022;SDS011;10172;42.054;24.546;2022-07-06T03:01:47;5.68;;;3.40;;
20022;SDS011;10172;42.054;24.546;2022-07-06T03:04:12;6.10;;;3.40;;
20022;SDS011;10172;42.054;24.546;2022-07-06T03:06:38;6.53;;;3.35;;
20022;SDS011;10172;42.054;24.546;2022-07-06T03:09:03;8.40;;;3.45;;
20022;SDS011;10172;42.054;24.546;2022-07-06T03:11:29;5.90;;;3.20;;
20022;SDS011;10172;42.054;24.546;2022-07-06T03:13:54;5.90;;;3.83;;
20022;SDS011;10172;42.054;24.546;2022-07-06T03:16:20;7.90;;;3.47;;
20022;SDS011;10172;42.054;24.546;2022-07-06T03:18:45;7.75;;;3.17;;
20022;SDS011;10172;42.054;24.546;2022-07-06T03:21:10;5.38;;;3.22;;
20022;SDS011;10172;42.054;24.546;2022-07-06T03:23:36;6.35;;;3.67;;
20022;SDS011;10172;42.054;24.546;2022-07-06T03:26:01;5.80;;;3.65;;
20022;SDS011;10172;42.054;24.546;2022-07-06T03:28:27;4.55;;;3.25;;
20022;SDS011;10172;42.054;24.546;2022-07-06T03:30:52;8.30;;;3.83;;
20022;SDS011;10172;42.054;24.546;2022-07-06T03:33:18;6.10;;;3.33;;
20022;SDS011;10172;42.054;24.546;2022-07-06T03:35:43;5.60;;;3.83;;
20022;SDS011;10172;42.054;24.546;2022-07-06T03:38:08;5.43;;;3.22;;
20022;SDS011;10172;42.054;24.546;2022-07-06T03:40:34;6.25;;;3.33;;
20022;SDS011;10172;42.054;24.546;2022-07-06T03:42:59;6.45;;;3.47;;
20022;SDS011;10172;42.054;24.546;2022-07-06T03:45:25;4.97;;;3.63;;
20022;SDS011;10172;42.054;24.546;2022-07-06T03:47:50;5.68;;;3.55;;
20022;SDS011;10172;42.054;24.546;2022-07-06T03:50:16;4.88;;;3.80;;
20022;SDS011;10172;42.054;24.546;2022-07-06T03:52:41;6.68;;;3.95;;
20022;SDS011;10172;42.054;24.546;2022-07-06T03:55:08;8.32;;;3.95;;
20022;SDS011;10172;42.054;24.546;2022-07-06T03:57:35;7.90;;;3.47;;
20022;SDS011;10172;42.054;24.546;2022-07-06T04:00:00;5.28;;;3.33;;
20022;SDS011;10172;42.054;24.546;2022-07-06T04:02:27;5.85;;;3.60;;
20022;SDS011;10172;42.054;24.546;2022-07-06T04:04:52;7.22;;;3.83;;
20022;SDS011;10172;42.054;24.546;2022-07-06T04:07:18;8.13;;;3.65;;
20022;SDS011;10172;42.054;24.546;2022-07-06T04:09:43;7.60;;;3.80;;
20022;SDS011;10172;42.054;24.546;2022-07-06T04:12:09;6.07;;;3.88;;
20022;SDS011;10172;42.054;24.546;2022-07-06T04:14:34;8.00;;;3.97;;
20022;SDS011;10172;42.054;24.546;2022-07-06T04:17:00;7.95;;;3.65;;
20022;SDS011;10172;42.054;24.546;2022-07-06T04:19:45;4.95;;;3.55;;
20022;SDS011;10172;42.054;24.546;2022-07-06T04:22:11;5.63;;;3.78;;
20022;SDS011;10172;42.054;24.546;2022-07-06T04:24:36;6.07;;;3.50;;
20022;SDS011;10172;42.054;24.546;2022-07-06T04:27:01;7.05;;;3.30;;
20022;SDS011;10172;42.054;24.546;2022-07-06T04:29:27;6.20;;;3.55;;
20022;SDS011;10172;42.054;24.546;2022-07-06T04:31:52;8.27;;;4.00;;
20022;SDS011;10172;42.054;24.546;2022-07-06T04:34:18;8.85;;;4.13;;
20022;SDS011;10172;42.054;24.546;2022-07-06T04:36:43;6.88;;;4.38;;
20022;SDS011;10172;42.054;24.546;2022-07-06T04:39:08;8.52;;;4.68;;
20022;SDS011;10172;42.054;24.546;2022-07-06T04:41:34;8.65;;;4.03;;
20022;SDS011;10172;42.054;24.546;2022-07-06T04:43:59;8.88;;;3.97;;
20022;SDS011;10172;42.054;24.546;2022-07-06T04:46:25;6.70;;;4.00;;
20022;SDS011;10172;42.054;24.546;2022-07-06T04:48:51;5.80;;;4.32;;
20022;SDS011;10172;42.054;24.546;2022-07-06T04:51:16;9.95;;;4.35;;
20022;SDS011;10172;42.054;24.546;2022-07-06T04:53:42;7.15;;;4.22;;
20022;SDS011;10172;42.054;24.546;2022-07-06T04:56:07;6.13;;;3.50;;
20022;SDS011;10172;42.054;24.546;2022-07-06T04:58:33;7.57;;;4.28;;
20022;SDS011;10172;42.054;24.546;2022-07-06T05:00:58;6.47;;;4.00;;
20022;SDS011;10172;42.054;24.546;2022-07-06T05:03:23;6.50;;;4.40;;
20022;SDS011;10172;42.054;24.546;2022-07-06T05:05:49;5.25;;;4.18;;
20022;SDS011;10172;42.054;24.546;2022-07-06T05:08:14;6.38;;;4.65;;
20022;SDS011;10172;42.054;24.546;2022-07-06T05:10:40;7.35;;;4.38;;
20022;SDS011;10172;42.054;24.546;2022-07-06T05:13:05;9.50;;;4.70;;
20022;SDS011;10172;42.054;24.546;2022-07-06T05:15:31;5.75;;;4.20;;
20022;SDS011;10172;42.054;24.546;2022-07-06T05:17:56;6.65;;;3.95;;
20022;SDS011;10172;42.054;24.546;2022-07-06T05:20:21;6.50;;;3.80;;
20022;SDS011;10172;42.054;24.546;2022-07-06T05:22:47;6.55;;;4.75;;
20022;SDS011;10172;42.054;24.546;2022-07-06T05:25:13;9.98;;;4.70;;
20022;SDS011;10172;42.054;24.546;2022-07-06T05:27:39;7.88;;;4.65;;
20022;SDS011;10172;42.054;24.546;2022-07-06T05:30:05;7.35;;;5.53;;
20022;SDS011;10172;42.054;24.546;2022-07-06T05:32:30;21.90;;;6.53;;
20022;SDS011;10172;42.054;24.546;2022-07-06T05:34:56;8.50;;;4.68;;
20022;SDS011;10172;42.054;24.546;2022-07-06T05:37:21;8.50;;;5.05;;
20022;SDS011;10172;42.054;24.546;2022-07-06T05:39:47;7.22;;;4.97;;
20022;SDS011;10172;42.054;24.546;2022-07-06T05:42:14;7.60;;;4.63;;
20022;SDS011;10172;42.054;24.546;2022-07-06T05:44:40;7.10;;;4.78;;
20022;SDS011;10172;42.054;24.546;2022-07-06T05:47:05;6.32;;;5.05;;
20022;SDS011;10172;42.054;24.546;2022-07-06T05:49:49;7.40;;;4.88;;
20022;SDS011;10172;42.054;24.546;2022-07-06T05:52:33;7.22;;;5.30;;
20022;SDS011;10172;42.054;24.546;2022-07-06T05:54:58;6.80;;;5.22;;
20022;SDS011;10172;42.054;24.546;2022-07-06T05:57:24;7.93;;;4.93;;
20022;SDS011;10172;42.054;24.546;2022-07-06T05:59:49;8.43;;;4.47;;
20022;SDS011;10172;42.054;24.546;2022-07-06T06:02:15;8.68;;;5.07;;
20022;SDS011;10172;42.054;24.546;2022-07-06T06:04:40;10.13;;;5.25;;
20022;SDS011;10172;42.054;24.546;2022-07-06T06:07:06;7.05;;;5.82;;
20022;SDS011;10172;42.054;24.546;2022-07-06T06:09:31;10.43;;;5.25;;
20022;SDS011;10172;42.054;24.546;2022-07-06T06:11:57;8.07;;;5.22;;
20022;SDS011;10172;42.054;24.546;2022-07-06T06:14:22;7.78;;;5.50;;
20022;SDS011;10172;42.054;24.546;2022-07-06T06:16:47;8.40;;;5.40;;
20022;SDS011;10172;42.054;24.546;2022-07-06T06:19:13;8.00;;;6.43;;
20022;SDS011;10172;42.054;24.546;2022-07-06T06:21:38;7.70;;;6.13;;
20022;SDS011;10172;42.054;24.546;2022-07-06T06:24:04;6.82;;;5.93;;
20022;SDS011;10172;42.054;24.546;2022-07-06T06:26:29;17.15;;;7.53;;
20022;SDS011;10172;42.054;24.546;2022-07-06T06:28:55;7.00;;;6.00;;
20022;SDS011;10172;42.054;24.546;2022-07-06T06:31:20;7.65;;;6.18;;
20022;SDS011;10172;42.054;24.546;2022-07-06T06:33:46;10.23;;;6.57;;
20022;SDS011;10172;42.054;24.546;2022-07-06T06:36:11;7.68;;;5.82;;
20022;SDS011;10172;42.054;24.546;2022-07-06T06:38:37;8.30;;;6.35;;
20022;SDS011;10172;42.054;24.546;2022-07-06T06:41:03;8.13;;;6.40;;
20022;SDS011;10172;42.054;24.546;2022-07-06T06:43:28;8.10;;;6.22;;
20022;SDS011;10172;42.054;24.546;2022-07-06T06:45:54;11.43;;;7.05;;
20022;SDS011;10172;42.054;24.546;2022-07-06T06:48:19;8.75;;;6.45;;
20022;SDS011;10172;42.054;24.546;2022-07-06T06:50:45;9.02;;;6.90;;
20022;SDS011;10172;42.054;24.546;2022-07-06T06:53:11;7.00;;;6.05;;
20022;SDS011;10172;42.054;24.546;2022-07-06T06:55:37;7.32;;;6.40;;
20022;SDS011;10172;42.054;24.546;2022-07-06T06:58:02;8.68;;;5.88;;
20022;SDS011;10172;42.054;24.546;2022-07-06T07:00:28;8.93;;;6.93;;
20022;SDS011;10172;42.054;24.546;2022-07-06T07:02:54;10.60;;;7.18;;
20022;SDS011;10172;42.054;24.546;2022-07-06T07:05:19;12.85;;;7.28;;
20022;SDS011;10172;42.054;24.546;2022-07-06T07:07:45;8.60;;;6.47;;
20022;SDS011;10172;42.054;24.546;2022-07-06T07:10:10;8.20;;;6.60;;
20022;SDS011;10172;42.054;24.546;2022-07-06T07:12:42;10.52;;;6.60;;
20022;SDS011;10172;42.054;24.546;2022-07-06T07:15:08;10.73;;;7.13;;
20022;SDS011;10172;42.054;24.546;2022-07-06T07:17:34;9.48;;;6.97;;
20022;SDS011;10172;42.054;24.546;2022-07-06T07:19:59;10.63;;;6.60;;
20022;SDS011;10172;42.054;24.546;2022-07-06T07:22:25;8.38;;;6.65;;
20022;SDS011;10172;42.054;24.546;2022-07-06T07:24:50;8.65;;;6.68;;
20022;SDS011;10172;42.054;24.546;2022-07-06T07:27:16;8.02;;;6.70;;
20022;SDS011;10172;42.054;24.546;2022-07-06T07:29:41;6.95;;;6.20;;
20022;SDS011;10172;42.054;24.546;2022-07-06T07:32:06;12.77;;;8.43;;
20022;SDS011;10172;42.054;24.546;2022-07-06T07:34:32;7.50;;;6.30;;
20022;SDS011;10172;42.054;24.546;2022-07-06T07:36:57;9.40;;;6.72;;
20022;SDS011;10172;42.054;24.546;2022-07-06T07:39:23;8.25;;;6.38;;
20022;SDS011;10172;42.054;24.546;2022-07-06T07:41:49;6.95;;;6.03;;
20022;SDS011;10172;42.054;24.546;2022-07-06T07:44:15;6.60;;;5.82;;
20022;SDS011;10172;42.054;24.546;2022-07-06T07:46:41;11.48;;;6.00;;
20022;SDS011;10172;42.054;24.546;2022-07-06T07:49:06;8.95;;;5.55;;
20022;SDS011;10172;42.054;24.546;2022-07-06T07:51:32;7.93;;;5.90;;
20022;SDS011;10172;42.054;24.546;2022-07-06T07:53:58;9.82;;;6.40;;
20022;SDS011;10172;42.054;24.546;2022-07-06T07:56:23;7.13;;;5.57;;
20022;SDS011;10172;42.054;24.546;2022-07-06T07:58:49;10.07;;;6.45;;
20022;SDS011;10172;42.054;24.546;2022-07-06T08:01:14;7.60;;;5.45;;
20022;SDS011;10172;42.054;24.546;2022-07-06T08:03:40;11.25;;;5.82;;
20022;SDS011;10172;42.054;24.546;2022-07-06T08:06:05;12.18;;;6.55;;
20022;SDS011;10172;42.054;24.546;2022-07-06T08:08:31;7.65;;;5.72;;
20022;SDS011;10172;42.054;24.546;2022-07-06T08:10:56;8.85;;;6.10;;
20022;SDS011;10172;42.054;24.546;2022-07-06T08:13:21;8.85;;;5.60;;
20022;SDS011;10172;42.054;24.546;2022-07-06T08:15:47;7.82;;;5.78;;
20022;SDS011;10172;42.054;24.546;2022-07-06T08:18:12;9.07;;;6.50;;
20022;SDS011;10172;42.054;24.546;2022-07-06T08:20:38;7.53;;;5.70;;
20022;SDS011;10172;42.054;24.546;2022-07-06T08:23:03;6.95;;;5.88;;
20022;SDS011;10172;42.054;24.546;2022-07-06T08:25:29;8.00;;;6.07;;
20022;SDS011;10172;42.054;24.546;2022-07-06T08:27:55;8.07;;;6.05;;
20022;SDS011;10172;42.054;24.546;2022-07-06T08:30:20;9.35;;;6.03;;
20022;SDS011;10172;42.054;24.546;2022-07-06T08:32:46;7.90;;;5.70;;
20022;SDS011;10172;42.054;24.546;2022-07-06T08:35:11;7.57;;;6.30;;
20022;SDS011;10172;42.054;24.546;2022-07-06T08:37:37;8.27;;;6.03;;
20022;SDS011;10172;42.054;24.546;2022-07-06T08:40:03;10.43;;;6.60;;
20022;SDS011;10172;42.054;24.546;2022-07-06T08:42:31;7.95;;;6.30;;
20022;SDS011;10172;42.054;24.546;2022-07-06T08:44:58;9.32;;;6.97;;
20022;SDS011;10172;42.054;24.546;2022-07-06T08:47:26;9.10;;;6.90;;
20022;SDS011;10172;42.054;24.546;2022-07-06T08:49:52;8.32;;;5.85;;
20022;SDS011;10172;42.054;24.546;2022-07-06T08:52:18;8.45;;;5.88;;
20022;SDS011;10172;42.054;24.546;2022-07-06T08:54:43;8.95;;;6.70;;
20022;SDS011;10172;42.054;24.546;2022-07-06T08:57:09;9.35;;;7.28;;
20022;SDS011;10172;42.054;24.546;2022-07-06T08:59:35;7.10;;;6.20;;
20022;SDS011;10172;42.054;24.546;2022-07-06T09:02:01;11.77;;;7.30;;
20022;SDS011;10172;42.054;24.546;2022-07-06T09:04:28;6.68;;;5.85;;
20022;SDS011;10172;42.054;24.546;2022-07-06T09:06:56;9.57;;;6.70;;
20022;SDS011;10172;42.054;24.546;2022-07-06T09:09:23;11.77;;;7.25;;
20022;SDS011;10172;42.054;24.546;2022-07-06T09:11:49;8.35;;;6.30;;
20022;SDS011;10172;42.054;24.546;2022-07-06T09:14:15;8.23;;;6.63;;
20022;SDS011;10172;42.054;24.546;2022-07-06T09:16:41;8.25;;;6.25;;
20022;SDS011;10172;42.054;24.546;2022-07-06T09:19:07;6.68;;;5.68;;
20022;SDS011;10172;42.054;24.546;2022-07-06T09:21:36;7.88;;;6.00;;
20022;SDS011;10172;42.054;24.546;2022-07-06T09:24:02;8.07;;;5.30;;
20022;SDS011;10172;42.054;24.546;2022-07-06T09:26:32;8.27;;;5.85;;
20022;SDS011;10172;42.054;24.546;2022-07-06T09:28:58;8.68;;;6.57;;
20022;SDS011;10172;42.054;24.546;2022-07-06T09:31:24;8.57;;;6.53;;
20022;SDS011;10172;42.054;24.546;2022-07-06T09:33:53;9.07;;;5.68;;
20022;SDS011;10172;42.054;24.546;2022-07-06T09:36:36;8.77;;;6.47;;
20022;SDS011;10172;42.054;24.546;2022-07-06T09:41:45;7.95;;;6.22;;
20022;SDS011;10172;42.054;24.546;2022-07-06T09:44:20;6.35;;;4.60;;
20022;SDS011;10172;42.054;24.546;2022-07-06T09:46:47;7.32;;;5.38;;
20022;SDS011;10172;42.054;24.546;2022-07-06T09:49:16;11.18;;;6.20;;
20022;SDS011;10172;42.054;24.546;2022-07-06T09:51:44;6.95;;;4.60;;
20022;SDS011;10172;42.054;24.546;2022-07-06T09:54:11;9.75;;;5.85;;
20022;SDS011;10172;42.054;24.546;2022-07-06T09:56:37;8.32;;;5.55;;
20022;SDS011;10172;42.054;24.546;2022-07-06T09:59:10;6.30;;;4.70;;
20022;SDS011;10172;42.054;24.546;2022-07-06T10:01:37;8.50;;;4.50;;
20022;SDS011;10172;42.054;24.546;2022-07-06T10:04:07;5.57;;;3.97;;
20022;SDS011;10172;42.054;24.546;2022-07-06T10:06:34;9.05;;;5.22;;
20022;SDS011;10172;42.054;24.546;2022-07-06T10:09:00;7.57;;;4.75;;
20022;SDS011;10172;42.054;24.546;2022-07-06T10:11:26;7.45;;;5.45;;
20022;SDS011;10172;42.054;24.546;2022-07-06T10:13:54;7.20;;;5.07;;
20022;SDS011;10172;42.054;24.546;2022-07-06T10:16:24;7.15;;;4.70;;
20022;SDS011;10172;42.054;24.546;2022-07-06T10:18:50;6.50;;;5.15;;
20022;SDS011;10172;42.054;24.546;2022-07-06T10:21:18;6.70;;;4.60;;
20022;SDS011;10172;42.054;24.546;2022-07-06T10:23:45;7.38;;;5.38;;
20022;SDS011;10172;42.054;24.546;2022-07-06T10:26:12;7.85;;;5.53;;
20022;SDS011;10172;42.054;24.546;2022-07-06T10:28:39;8.68;;;5.70;;
20022;SDS011;10172;42.054;24.546;2022-07-06T10:31:04;7.45;;;5.40;;
20022;SDS011;10172;42.054;24.546;2022-07-06T10:33:31;7.10;;;4.85;;
20022;SDS011;10172;42.054;24.546;2022-07-06T10:35:58;6.85;;;4.93;;
20022;SDS011;10172;42.054;24.546;2022-07-06T10:38:34;13.57;;;4.97;;
20022;SDS011;10172;42.054;24.546;2022-07-06T10:41:03;9.52;;;5.72;;
20022;SDS011;10172;42.054;24.546;2022-07-06T10:46:14;6.75;;;5.22;;
20022;SDS011;10172;42.054;24.546;2022-07-06T10:48:42;6.82;;;5.38;;
20022;SDS011;10172;42.054;24.546;2022-07-06T10:51:10;6.47;;;4.95;;
20022;SDS011;10172;42.054;24.546;2022-07-06T10:53:37;7.75;;;5.53;;
20022;SDS011;10172;42.054;24.546;2022-07-06T10:56:08;7.55;;;4.68;;
20022;SDS011;10172;42.054;24.546;2022-07-06T11:01:12;7.28;;;5.38;;
20022;SDS011;10172;42.054;24.546;2022-07-06T11:03:39;9.68;;;5.63;;
20022;SDS011;10172;42.054;24.546;2022-07-06T11:16:29;9.65;;;6.35;;
20022;SDS011;10172;42.054;24.546;2022-07-06T11:24:00;7.57;;;6.40;;
20022;SDS011;10172;42.054;24.546;2022-07-06T11:26:26;7.35;;;5.78;;
20022;SDS011;10172;42.054;24.546;2022-07-06T11:28:52;10.63;;;7.05;;
20022;SDS011;10172;42.054;24.546;2022-07-06T11:31:18;7.93;;;5.57;;
20022;SDS011;10172;42.054;24.546;2022-07-06T11:33:47;10.95;;;6.22;;
20022;SDS011;10172;42.054;24.546;2022-07-06T11:38:40;11.95;;;7.03;;
20022;SDS011;10172;42.054;24.546;2022-07-06T11:41:06;9.15;;;6.57;;
20022;SDS011;10172;42.054;24.546;2022-07-06T11:43:31;7.25;;;6.32;;
20022;SDS011;10172;42.054;24.546;2022-07-06T11:45:57;8.95;;;6.20;;
20022;SDS011;10172;42.054;24.546;2022-07-06T11:48:22;11.25;;;7.25;;
20022;SDS011;10172;42.054;24.546;2022-07-06T11:51:01;9.02;;;6.75;;
20022;SDS011;10172;42.054;24.546;2022-07-06T11:53:27;7.85;;;6.45;;
20022;SDS011;10172;42.054;24.546;2022-07-06T11:55:53;7.75;;;6.93;;
20022;SDS011;10172;42.054;24.546;2022-07-06T11:58:20;11.55;;;7.15;;
20022;SDS011;10172;42.054;24.546;2022-07-06T12:01:06;7.93;;;6.60;;
20022;SDS011;10172;42.054;24.546;2022-07-06T12:03:33;9.73;;;7.20;;
20022;SDS011;10172;42.054;24.546;2022-07-06T12:06:01;11.02;;;6.30;;
20022;SDS011;10172;42.054;24.546;2022-07-06T12:08:27;8.70;;;6.30;;
20022;SDS011;10172;42.054;24.546;2022-07-06T12:10:52;8.95;;;6.95;;
20022;SDS011;10172;42.054;24.546;2022-07-06T12:13:19;8.10;;;6.55;;
20022;SDS011;10172;42.054;24.546;2022-07-06T12:15:44;10.43;;;6.70;;
20022;SDS011;10172;42.054;24.546;2022-07-06T12:18:10;9.55;;;6.75;;
20022;SDS011;10172;42.054;24.546;2022-07-06T12:20:36;11.20;;;7.60;;
20022;SDS011;10172;42.054;24.546;2022-07-06T12:23:05;12.00;;;7.53;;
20022;SDS011;10172;42.054;24.546;2022-07-06T12:25:35;9.20;;;6.80;;
20022;SDS011;10172;42.054;24.546;2022-07-06T12:28:02;10.40;;;7.07;;
20022;SDS011;10172;42.054;24.546;2022-07-06T12:30:28;12.07;;;8.80;;
20022;SDS011;10172;42.054;24.546;2022-07-06T12:33:15;9.82;;;7.57;;
20022;SDS011;10172;42.054;24.546;2022-07-06T12:35:40;10.20;;;6.75;;
20022;SDS011;10172;42.054;24.546;2022-07-06T12:38:07;10.85;;;8.18;;
20022;SDS011;10172;42.054;24.546;2022-07-06T12:40:35;12.50;;;9.07;;
20022;SDS011;10172;42.054;24.546;2022-07-06T12:43:01;8.52;;;6.47;;
20022;SDS011;10172;42.054;24.546;2022-07-06T12:45:28;7.80;;;6.82;;
20022;SDS011;10172;42.054;24.546;2022-07-06T12:47:58;9.40;;;6.90;;
20022;SDS011;10172;42.054;24.546;2022-07-06T12:50:46;7.40;;;6.65;;
20022;SDS011;10172;42.054;24.546;2022-07-06T12:53:25;8.82;;;6.55;;
20022;SDS011;10172;42.054;24.546;2022-07-06T12:56:07;6.50;;;5.80;;
20022;SDS011;10172;42.054;24.546;2022-07-06T12:58:36;8.10;;;6.10;;
20022;SDS011;10172;42.054;24.546;2022-07-06T13:01:02;8.95;;;5.75;;
20022;SDS011;10172;42.054;24.546;2022-07-06T13:03:27;8.02;;;5.60;;
20022;SDS011;10172;42.054;24.546;2022-07-06T13:05:53;10.05;;;6.80;;
20022;SDS011;10172;42.054;24.546;2022-07-06T13:08:18;8.75;;;5.78;;
20022;SDS011;10172;42.054;24.546;2022-07-06T13:10:44;9.40;;;6.50;;
20022;SDS011;10172;42.054;24.546;2022-07-06T13:13:10;10.88;;;6.78;;
20022;SDS011;10172;42.054;24.546;2022-07-06T13:15:35;10.02;;;6.22;;
20022;SDS011;10172;42.054;24.546;2022-07-06T13:18:01;7.22;;;5.60;;
20022;SDS011;10172;42.054;24.546;2022-07-06T13:20:26;9.98;;;6.00;;
20022;SDS011;10172;42.054;24.546;2022-07-06T13:22:53;10.98;;;6.72;;
20022;SDS011;10172;42.054;24.546;2022-07-06T13:25:18;8.23;;;6.10;;
20022;SDS011;10172;42.054;24.546;2022-07-06T13:27:44;11.82;;;6.60;;
20022;SDS011;10172;42.054;24.546;2022-07-06T13:30:09;10.48;;;7.75;;
20022;SDS011;10172;42.054;24.546;2022-07-06T13:32:35;8.15;;;6.32;;
20022;SDS011;10172;42.054;24.546;2022-07-06T13:35:01;8.32;;;6.43;;
20022;SDS011;10172;42.054;24.546;2022-07-06T13:37:27;8.05;;;6.20;;
20022;SDS011;10172;42.054;24.546;2022-07-06T13:39:52;14.35;;;8.15;;
20022;SDS011;10172;42.054;24.546;2022-07-06T13:42:18;15.07;;;7.47;;
20022;SDS011;10172;42.054;24.546;2022-07-06T13:44:43;17.98;;;6.88;;
20022;SDS011;10172;42.054;24.546;2022-07-06T13:47:09;12.15;;;7.75;;
20022;SDS011;10172;42.054;24.546;2022-07-06T13:49:35;10.65;;;6.65;;
20022;SDS011;10172;42.054;24.546;2022-07-06T13:52:00;11.90;;;7.18;;
20022;SDS011;10172;42.054;24.546;2022-07-06T13:54:29;13.82;;;7.65;;
20022;SDS011;10172;42.054;24.546;2022-07-06T13:56:55;19.65;;;10.63;;
20022;SDS011;10172;42.054;24.546;2022-07-06T13:59:21;13.80;;;8.95;;
20022;SDS011;10172;42.054;24.546;2022-07-06T14:01:46;12.65;;;8.50;;
20022;SDS011;10172;42.054;24.546;2022-07-06T14:04:11;10.68;;;9.30;;
20022;SDS011;10172;42.054;24.546;2022-07-06T14:06:37;16.48;;;8.70;;
20022;SDS011;10172;42.054;24.546;2022-07-06T14:09:02;13.82;;;8.52;;
20022;SDS011;10172;42.054;24.546;2022-07-06T14:11:28;13.32;;;8.93;;
20022;SDS011;10172;42.054;24.546;2022-07-06T14:13:53;13.60;;;9.02;;
20022;SDS011;10172;42.054;24.546;2022-07-06T14:16:19;13.52;;;8.73;;
20022;SDS011;10172;42.054;24.546;2022-07-06T14:18:44;12.60;;;9.55;;
20022;SDS011;10172;42.054;24.546;2022-07-06T14:21:10;13.40;;;9.30;;
20022;SDS011;10172;42.054;24.546;2022-07-06T14:23:35;9.75;;;8.35;;
20022;SDS011;10172;42.054;24.546;2022-07-06T14:26:01;11.70;;;8.55;;
20022;SDS011;10172;42.054;24.546;2022-07-06T14:28:27;9.88;;;7.78;;
20022;SDS011;10172;42.054;24.546;2022-07-06T14:30:53;10.65;;;8.57;;
20022;SDS011;10172;42.054;24.546;2022-07-06T14:33:18;9.52;;;8.15;;
20022;SDS011;10172;42.054;24.546;2022-07-06T14:35:45;10.20;;;7.47;;
20022;SDS011;10172;42.054;24.546;2022-07-06T14:38:13;11.68;;;8.55;;
20022;SDS011;10172;42.054;24.546;2022-07-06T14:40:39;11.30;;;8.23;;
20022;SDS011;10172;42.054;24.546;2022-07-06T14:43:05;10.82;;;8.70;;
20022;SDS011;10172;42.054;24.546;2022-07-06T14:45:31;10.00;;;8.45;;
20022;SDS011;10172;42.054;24.546;2022-07-06T14:47:57;18.23;;;10.90;;
20022;SDS011;10172;42.054;24.546;2022-07-06T14:50:23;8.10;;;6.88;;
20022;SDS011;10172;42.054;24.546;2022-07-06T14:52:50;13.32;;;8.32;;